Gage Information Page
Francis E. Walter Reservoir, PA

Provisional Data Subject to Revision
Francis E. Walter Reservoir, PA
Amber Threshold Elevation:1392 feet
Red Threshold Elevation:1441 feet
Date (ET) Elevation (ft) Storage (ac-ft) Inflow (cfs) Outflow (cfs)
Apr 26, 2015   6:15 pm 1369.59 20493 692 326
Apr 26, 2015   5:15 pm 1369.53 20463 692 326
Apr 26, 2015   4:15 pm 1369.48 20438 700 326
Apr 26, 2015   3:15 pm 1369.42 20409 708 326
Apr 26, 2015   2:15 pm 1369.36 20379 709 326
Apr 26, 2015   1:15 pm 1369.31 20354 720 450
Apr 26, 2015 12:15 pm 1369.26 20329 720 450
Apr 26, 2015 11:15 am 1369.22 20309 735 450
Apr 26, 2015 10:15 am 1369.17 20285 728 450
Apr 26, 2015   9:15 am 1369.13 20265 743 450
Apr 26, 2015   8:15 am 1369.09 20245 750 450
Apr 26, 2015   7:15 am 1369.04 20220 750 450
Apr 26, 2015   6:15 am 1369.00 20200 765 450
Apr 26, 2015   5:15 am 1368.95 20175 765 450
Apr 26, 2015   4:15 am 1368.90 20151 765 450
Apr 26, 2015   3:15 am 1368.84 20121 765 450
Apr 26, 2015   2:15 am 1368.80 20101 780 450
Apr 26, 2015   1:15 am 1368.74 20071 780 450
Apr 26, 2015 12:15 am 1368.69 20046 780 450
Apr 25, 2015 11:15 pm 1368.64 20021 788 450
Apr 25, 2015 10:15 pm 1368.58 19992 788 450
Apr 25, 2015   9:15 pm 1368.53 19967 795 450
Apr 25, 2015   8:15 pm 1368.48 19942 803 450
Apr 25, 2015   7:15 pm 1368.42 19912 803 450
Report Generated Apr 26, 2015 07:24 PM

NWS Web Info
USGS Web Info